Time;durP1;ratioP1;P1;durP2;ratioP2;P2;SDS_P1;SDS_P2;PMS_P1;PMS_P2;Temp;Humidity;BMP_temperature;BMP_pressure;BME280_temperature;BME280_humidity;BME280_pressure;Samples;Min_cycle;Max_cycle;Signal;HPM_P1;HPM_P2
2024/01/14 00:01:46;;;;;;;10.23;6.38;;;-0.60;99.90;;;;;;4920766;28;20043;-72
2024/01/14 00:04:12;;;;;;;12.93;7.90;;;-0.70;99.90;;;;;;4925655;28;20035;-71
2024/01/14 00:06:38;;;;;;;14.82;9.23;;;-0.60;99.90;;;;;;4920741;28;20089;-71
2024/01/14 00:09:03;;;;;;;14.18;7.82;;;-0.60;99.90;;;;;;4921865;28;20262;-71
2024/01/14 00:11:29;;;;;;;11.57;7.05;;;-0.60;99.90;;;;;;4921187;28;20043;-71
2024/01/14 00:13:54;;;;;;;12.90;7.28;;;-0.50;99.90;;;;;;4920843;28;20034;-73
2024/01/14 00:16:20;;;;;;;13.20;6.97;;;-0.40;99.90;;;;;;4922211;28;20122;-71
2024/01/14 00:18:45;;;;;;;14.48;8.10;;;-0.20;99.90;;;;;;4930284;28;20034;-72
2024/01/14 00:21:11;;;;;;;11.50;7.45;;;0.00;99.90;;;;;;4923032;28;20062;-72
2024/01/14 00:23:37;;;;;;;21.73;10.25;;;0.20;99.90;;;;;;4928964;28;20491;-72
2024/01/14 00:26:02;;;;;;;12.48;7.57;;;0.20;99.90;;;;;;4926589;28;20126;-72
2024/01/14 00:28:28;;;;;;;10.55;7.40;;;0.40;99.90;;;;;;4929309;28;20571;-72
2024/01/14 00:30:53;;;;;;;10.98;7.38;;;0.40;99.90;;;;;;4924896;28;20047;-71
2024/01/14 00:33:19;;;;;;;10.75;6.55;;;0.40;99.90;;;;;;4927698;28;20054;-72
2024/01/14 00:35:45;;;;;;;9.48;6.10;;;0.40;99.90;;;;;;4925428;28;20035;-72
2024/01/14 00:38:13;;;;;;;10.43;6.85;;;0.40;99.90;;;;;;4927349;28;20027;-72
2024/01/14 00:40:39;;;;;;;10.45;6.68;;;0.40;99.90;;;;;;4927624;28;20030;-73
2024/01/14 00:43:04;;;;;;;11.35;7.43;;;0.20;99.90;;;;;;4921581;28;20497;-71
2024/01/14 00:45:30;;;;;;;12.63;7.22;;;0.10;99.90;;;;;;4921335;28;20126;-71
2024/01/14 00:47:55;;;;;;;11.32;7.13;;;-0.10;99.90;;;;;;4928970;28;20023;-70
2024/01/14 00:50:21;;;;;;;10.02;6.22;;;-0.20;99.90;;;;;;4924258;28;20516;-71
2024/01/14 00:52:47;;;;;;;11.20;6.45;;;-0.30;99.90;;;;;;4927668;28;20027;-71
2024/01/14 00:55:13;;;;;;;10.93;6.35;;;-0.40;99.90;;;;;;4928829;28;20026;-71
2024/01/14 00:57:39;;;;;;;9.48;6.72;;;-0.50;99.90;;;;;;4927144;28;20031;-71
2024/01/14 01:00:08;;;;;;;10.60;6.35;;;-0.50;99.90;;;;;;4923372;28;20046;-71
2024/01/14 01:02:34;;;;;;;9.57;6.03;;;-0.60;99.90;;;;;;4927535;28;20103;-71
2024/01/14 01:05:00;;;;;;;7.95;5.82;;;-0.50;99.90;;;;;;4927545;28;20161;-71
2024/01/14 01:07:26;;;;;;;12.02;6.25;;;-0.50;99.90;;;;;;4925792;28;20059;-71
2024/01/14 01:09:52;;;;;;;9.32;5.60;;;-0.50;99.90;;;;;;4926851;28;20548;-72
2024/01/14 01:12:17;;;;;;;8.38;5.57;;;-0.50;99.90;;;;;;4922859;28;20054;-73
2024/01/14 01:14:44;;;;;;;9.27;5.53;;;-0.60;99.90;;;;;;4926196;28;20035;-73
2024/01/14 01:17:10;;;;;;;8.88;5.47;;;-0.50;99.90;;;;;;4922887;28;20024;-73
2024/01/14 01:19:35;;;;;;;9.07;5.70;;;-0.40;99.90;;;;;;4927519;28;20069;-73
2024/01/14 01:22:02;;;;;;;8.50;5.18;;;-0.40;99.90;;;;;;4927219;28;20053;-72
2024/01/14 01:24:28;;;;;;;8.25;5.07;;;-0.40;99.90;;;;;;4921514;28;20035;-73
2024/01/14 01:26:53;;;;;;;7.63;5.45;;;-0.50;99.90;;;;;;4922132;28;20031;-73
2024/01/14 01:29:19;;;;;;;8.88;5.78;;;-0.50;99.90;;;;;;4926969;28;20441;-73
2024/01/14 01:31:45;;;;;;;9.90;5.40;;;-0.40;99.90;;;;;;4908919;28;20050;-72
2024/01/14 01:34:10;;;;;;;8.82;5.35;;;-0.40;99.90;;;;;;4926276;28;20397;-72
2024/01/14 01:36:36;;;;;;;10.63;6.65;;;-0.50;99.90;;;;;;4927807;28;20046;-69
2024/01/14 01:39:02;;;;;;;7.75;5.13;;;-0.50;99.90;;;;;;4926079;28;20079;-68
2024/01/14 01:41:28;;;;;;;7.45;5.05;;;-0.50;99.90;;;;;;4906256;28;20126;-69
2024/01/14 01:43:54;;;;;;;8.93;5.90;;;-0.50;99.90;;;;;;4926631;28;20389;-69
2024/01/14 01:46:19;;;;;;;11.50;6.35;;;-0.50;99.90;;;;;;4922403;28;20031;-68
2024/01/14 01:48:46;;;;;;;11.45;6.80;;;-0.50;99.90;;;;;;4924713;28;20583;-68
2024/01/14 01:51:12;;;;;;;9.95;7.22;;;-0.50;99.90;;;;;;4925655;28;20130;-69
2024/01/14 01:53:38;;;;;;;10.57;6.85;;;-0.60;99.90;;;;;;4927155;28;20042;-68
2024/01/14 01:56:04;;;;;;;13.32;7.13;;;-0.70;99.90;;;;;;4923598;28;20027;-69
2024/01/14 01:58:31;;;;;;;9.45;6.18;;;-0.70;99.90;;;;;;4922437;28;20510;-68
2024/01/14 02:00:57;;;;;;;10.85;7.05;;;-0.80;99.90;;;;;;4924191;28;20075;-69
2024/01/14 02:03:24;;;;;;;10.30;6.93;;;-0.70;99.90;;;;;;4923644;28;20444;-69
2024/01/14 02:05:54;;;;;;;10.35;6.57;;;-0.70;99.90;;;;;;4925526;28;20039;-68
2024/01/14 02:08:20;;;;;;;13.27;8.43;;;-0.80;99.90;;;;;;4925089;28;20346;-69
2024/01/14 02:10:45;;;;;;;13.57;6.60;;;-0.80;99.90;;;;;;4924654;28;20042;-71
2024/01/14 02:13:11;;;;;;;9.75;6.88;;;-0.80;99.90;;;;;;4924561;28;20118;-70
2024/01/14 02:15:37;;;;;;;10.35;6.40;;;-0.70;99.90;;;;;;4924997;28;20023;-71
2024/01/14 02:18:03;;;;;;;8.93;6.25;;;-0.70;99.90;;;;;;4927146;28;20027;-71
2024/01/14 02:20:28;;;;;;;12.13;6.93;;;-0.70;99.90;;;;;;4921830;28;20523;-71
2024/01/14 02:22:56;;;;;;;10.90;6.55;;;-0.60;99.90;;;;;;4926227;28;20122;-71
2024/01/14 02:25:22;;;;;;;10.65;7.10;;;-0.60;99.90;;;;;;4923715;28;20137;-72
2024/01/14 02:27:49;;;;;;;10.25;7.10;;;-0.60;99.90;;;;;;4923475;28;20111;-75
2024/01/14 02:30:15;;;;;;;9.73;6.07;;;-0.60;99.90;;;;;;4923258;28;20043;-74
2024/01/14 02:32:41;;;;;;;9.85;6.72;;;-0.60;99.90;;;;;;4918867;28;20046;-73
2024/01/14 02:35:07;;;;;;;10.68;6.15;;;-0.60;99.90;;;;;;4926334;28;20042;-75
2024/01/14 02:37:33;;;;;;;11.55;7.30;;;-0.60;99.90;;;;;;4924068;28;20072;-75
2024/01/14 02:39:59;;;;;;;9.52;6.32;;;-0.70;99.90;;;;;;4927299;28;20138;-76
2024/01/14 02:42:24;;;;;;;11.40;6.88;;;-0.60;99.90;;;;;;4924679;28;20031;-73
2024/01/14 02:44:50;;;;;;;10.20;5.55;;;-0.60;99.90;;;;;;4927471;28;20027;-73
2024/01/14 02:47:16;;;;;;;11.52;6.47;;;-0.60;99.90;;;;;;4924811;28;20358;-72
2024/01/14 02:49:42;;;;;;;12.20;7.35;;;-0.70;99.90;;;;;;4930824;28;20084;-73
2024/01/14 02:52:08;;;;;;;10.43;6.78;;;-0.60;99.90;;;;;;4925722;28;20040;-72
2024/01/14 02:54:33;;;;;;;9.63;6.15;;;-0.50;99.90;;;;;;4929003;28;20335;-73
2024/01/14 02:56:59;;;;;;;9.40;6.20;;;-0.50;99.90;;;;;;4929900;28;20106;-70
2024/01/14 02:59:24;;;;;;;9.10;6.05;;;-0.50;99.90;;;;;;4926945;28;20479;-72
2024/01/14 03:01:50;;;;;;;9.45;6.57;;;-0.50;99.90;;;;;;4926098;28;20034;-72
2024/01/14 03:04:16;;;;;;;11.07;6.63;;;-0.40;99.90;;;;;;4928853;28;20300;-70
2024/01/14 03:06:42;;;;;;;9.68;6.18;;;-0.40;99.90;;;;;;4928136;28;20043;-69
2024/01/14 03:09:09;;;;;;;9.65;6.07;;;-0.40;99.90;;;;;;4920913;28;20417;-70
2024/01/14 03:11:35;;;;;;;9.63;6.18;;;-0.40;99.90;;;;;;4926856;28;20074;-71
2024/01/14 03:14:01;;;;;;;8.88;6.50;;;-0.40;99.90;;;;;;4927961;28;20027;-71
2024/01/14 03:16:26;;;;;;;9.40;6.50;;;-0.40;99.90;;;;;;4921392;28;20123;-71
2024/01/14 03:18:52;;;;;;;8.93;5.90;;;-0.30;99.90;;;;;;4928615;28;20027;-70
2024/01/14 03:21:19;;;;;;;9.65;5.60;;;-0.30;99.90;;;;;;4927247;28;20027;-71
2024/01/14 03:23:45;;;;;;;8.63;5.95;;;-0.30;99.90;;;;;;4929997;28;20035;-71
2024/01/14 03:26:10;;;;;;;11.65;6.53;;;-0.30;99.90;;;;;;4927848;28;20587;-71
2024/01/14 03:28:36;;;;;;;9.32;6.13;;;-0.30;99.90;;;;;;4934323;28;20031;-70
2024/01/14 03:31:03;;;;;;;10.50;6.72;;;-0.30;99.90;;;;;;4927639;28;20043;-70
2024/01/14 03:33:29;;;;;;;8.52;5.68;;;-0.30;99.90;;;;;;4928311;28;20559;-71
2024/01/14 03:35:54;;;;;;;10.30;6.93;;;-0.30;99.90;;;;;;4933860;28;20031;-71
2024/01/14 03:38:20;;;;;;;9.95;6.28;;;-0.40;99.90;;;;;;4930554;28;20435;-71
2024/01/14 03:40:46;;;;;;;12.25;7.30;;;-0.40;99.90;;;;;;4931454;28;20126;-71
2024/01/14 03:43:12;;;;;;;8.60;6.15;;;-0.40;99.90;;;;;;4927786;28;20396;-71
2024/01/14 03:45:37;;;;;;;9.55;6.72;;;-0.40;99.90;;;;;;4926155;28;20043;-71
2024/01/14 03:48:03;;;;;;;9.27;5.95;;;-0.40;99.90;;;;;;4926413;28;20106;-71
2024/01/14 03:50:29;;;;;;;9.20;6.57;;;-0.30;99.90;;;;;;4931075;28;20046;-71
2024/01/14 03:52:55;;;;;;;8.55;6.38;;;-0.40;99.90;;;;;;4930933;28;20031;-71
2024/01/14 03:55:20;;;;;;;8.65;5.93;;;-0.40;99.90;;;;;;4929401;28;20035;-71
2024/01/14 03:57:46;;;;;;;10.57;6.85;;;-0.40;99.90;;;;;;4932849;28;20105;-71
2024/01/14 04:00:12;;;;;;;9.93;6.43;;;-0.50;99.90;;;;;;4928282;28;20050;-71
2024/01/14 04:02:39;;;;;;;8.77;5.32;;;-0.40;99.90;;;;;;4930169;28;20464;-71
2024/01/14 04:05:05;;;;;;;10.32;6.53;;;-0.40;99.90;;;;;;4931002;28;20106;-71
2024/01/14 04:07:30;;;;;;;9.77;7.10;;;-0.50;99.90;;;;;;4930010;28;20188;-70
2024/01/14 04:09:56;;;;;;;8.13;5.72;;;-0.50;99.90;;;;;;4928794;28;20122;-70
2024/01/14 04:12:22;;;;;;;10.95;7.07;;;-0.60;99.90;;;;;;4928651;28;20489;-70
2024/01/14 04:14:47;;;;;;;10.20;6.45;;;-0.60;99.90;;;;;;4928901;28;20233;-70
2024/01/14 04:17:13;;;;;;;7.90;5.97;;;-0.60;99.90;;;;;;4930907;28;20054;-71
2024/01/14 04:19:39;;;;;;;10.13;5.63;;;-0.70;99.90;;;;;;4928872;28;20034;-72
2024/01/14 04:22:04;;;;;;;9.45;6.50;;;-0.60;99.90;;;;;;4921508;28;20094;-71
2024/01/14 04:24:30;;;;;;;11.25;6.97;;;-0.60;99.90;;;;;;4930930;28;20249;-70
2024/01/14 04:26:56;;;;;;;10.05;6.47;;;-0.50;99.90;;;;;;4930754;28;20106;-69
2024/01/14 04:29:22;;;;;;;9.95;7.10;;;-0.40;99.90;;;;;;4930169;28;21272;-70
2024/01/14 04:31:47;;;;;;;8.27;5.57;;;-0.40;99.90;;;;;;4928112;28;20444;-70
2024/01/14 04:34:13;;;;;;;10.38;6.13;;;-0.30;99.90;;;;;;4928366;28;20032;-70
2024/01/14 04:36:38;;;;;;;9.00;6.03;;;-0.30;99.90;;;;;;4931844;28;20053;-70
2024/01/14 04:39:04;;;;;;;8.82;6.35;;;-0.10;99.90;;;;;;4929717;28;20086;-70
2024/01/14 04:41:30;;;;;;;9.43;6.55;;;0.00;99.90;;;;;;4928364;28;20050;-70
2024/01/14 04:43:55;;;;;;;9.77;6.18;;;0.00;99.90;;;;;;4929434;28;20043;-70
2024/01/14 04:46:21;;;;;;;10.60;6.80;;;0.10;99.90;;;;;;4925843;28;20040;-69
2024/01/14 04:48:47;;;;;;;7.95;5.35;;;0.10;99.90;;;;;;4925999;28;20102;-71
2024/01/14 04:51:12;;;;;;;8.10;5.65;;;0.10;99.90;;;;;;4928973;28;20032;-72
2024/01/14 04:53:38;;;;;;;14.70;9.80;;;0.00;99.90;;;;;;4927757;28;20094;-71
2024/01/14 04:56:06;;;;;;;9.85;6.82;;;-0.10;99.90;;;;;;4929706;28;20039;-72
2024/01/14 04:58:32;;;;;;;10.52;6.57;;;0.00;99.90;;;;;;4929183;28;20568;-72
2024/01/14 05:00:58;;;;;;;9.93;6.47;;;-0.10;99.90;;;;;;4929163;28;20042;-70
2024/01/14 05:03:23;;;;;;;8.25;6.05;;;-0.20;99.90;;;;;;4926909;28;20082;-69
2024/01/14 05:05:49;;;;;;;10.43;6.72;;;-0.30;99.90;;;;;;4908534;28;20050;-70
2024/01/14 05:08:14;;;;;;;11.32;7.32;;;-0.30;99.90;;;;;;4927760;28;20515;-70
2024/01/14 05:10:40;;;;;;;10.23;6.85;;;-0.30;99.90;;;;;;4924271;28;20050;-70
2024/01/14 05:13:06;;;;;;;10.48;6.22;;;-0.30;99.90;;;;;;4926987;28;20031;-70
2024/01/14 05:15:31;;;;;;;10.48;6.50;;;-0.30;99.90;;;;;;4927965;28;20035;-70
2024/01/14 05:17:57;;;;;;;10.93;7.10;;;-0.30;99.90;;;;;;4929237;28;20027;-71
2024/01/14 05:20:22;;;;;;;25.38;17.85;;;-0.30;99.90;;;;;;4928208;28;20035;-71
2024/01/14 05:22:48;;;;;;;12.68;9.50;;;-0.20;99.90;;;;;;4929694;28;20023;-70
2024/01/14 05:25:14;;;;;;;9.60;6.40;;;-0.30;99.90;;;;;;4929076;28;20713;-71
2024/01/14 05:27:40;;;;;;;11.35;6.70;;;-0.30;99.90;;;;;;4928121;28;20027;-71
2024/01/14 05:30:06;;;;;;;10.40;6.05;;;-0.30;99.90;;;;;;4929434;28;20473;-72
2024/01/14 05:32:32;;;;;;;14.02;10.25;;;-0.30;99.90;;;;;;4929027;28;20051;-71
2024/01/14 05:34:57;;;;;;;10.60;7.20;;;-0.30;99.90;;;;;;4928371;28;20523;-71
2024/01/14 05:37:23;;;;;;;13.20;9.55;;;-0.20;99.90;;;;;;4927833;28;20547;-70
2024/01/14 05:39:49;;;;;;;11.25;7.80;;;-0.30;99.90;;;;;;4929674;28;20031;-71
2024/01/14 05:42:14;;;;;;;10.98;7.38;;;-0.30;99.90;;;;;;4929333;28;20034;-70
2024/01/14 05:44:40;;;;;;;12.00;7.18;;;-0.30;99.90;;;;;;4930564;28;20500;-71
2024/01/14 05:47:05;;;;;;;13.27;7.97;;;-0.30;99.90;;;;;;4928829;28;20061;-70
2024/01/14 05:49:31;;;;;;;15.68;8.63;;;-0.30;99.90;;;;;;4926893;28;20046;-70
2024/01/14 05:51:57;;;;;;;12.18;7.53;;;-0.40;99.90;;;;;;4929118;28;20043;-70
2024/01/14 05:54:22;;;;;;;13.75;8.13;;;-0.40;99.90;;;;;;4926742;28;20451;-71
2024/01/14 05:56:48;;;;;;;11.98;7.53;;;-0.40;99.90;;;;;;4927818;28;20031;-71
2024/01/14 05:59:14;;;;;;;14.60;8.27;;;-0.40;99.90;;;;;;4926311;28;20114;-70
2024/01/14 06:01:40;;;;;;;15.45;8.20;;;-0.60;99.90;;;;;;4926129;28;20027;-70
2024/01/14 06:04:05;;;;;;;16.30;8.77;;;-0.70;99.90;;;;;;4929999;28;20403;-71
2024/01/14 06:06:31;;;;;;;14.75;9.13;;;-0.70;99.90;;;;;;4930120;28;20120;-70
2024/01/14 06:08:57;;;;;;;16.52;9.68;;;-0.70;99.90;;;;;;4929867;28;20053;-70
2024/01/14 06:11:22;;;;;;;17.92;9.38;;;-0.70;99.90;;;;;;4926819;28;20487;-66
2024/01/14 06:13:48;;;;;;;18.33;9.80;;;-0.80;99.90;;;;;;4929858;28;20789;-70
2024/01/14 06:16:13;;;;;;;17.88;10.07;;;-0.90;99.90;;;;;;4916884;28;22314;-70
2024/01/14 06:18:40;;;;;;;18.05;10.13;;;-0.90;99.90;;;;;;4910816;28;20086;-71
2024/01/14 06:21:06;;;;;;;19.27;10.48;;;-0.90;99.90;;;;;;4923844;28;20341;-70
2024/01/14 06:23:32;;;;;;;19.33;10.30;;;-0.90;99.90;;;;;;4927174;28;20035;-69
2024/01/14 06:25:58;;;;;;;18.15;10.27;;;-0.90;99.90;;;;;;4924054;28;20040;-70
2024/01/14 06:28:24;;;;;;;20.02;10.73;;;-0.90;99.90;;;;;;4923361;28;20502;-69
2024/01/14 06:30:49;;;;;;;23.58;11.88;;;-0.90;99.90;;;;;;4924429;28;20047;-69
2024/01/14 06:33:15;;;;;;;22.55;11.05;;;-0.90;99.90;;;;;;4929198;28;20518;-67
2024/01/14 06:35:40;;;;;;;23.98;12.35;;;-0.90;99.90;;;;;;4926670;28;20015;-67
2024/01/14 06:38:09;;;;;;;18.73;11.50;;;-0.80;99.90;;;;;;4924019;28;20051;-67
2024/01/14 06:40:35;;;;;;;23.23;11.60;;;-0.80;99.90;;;;;;4926886;28;20035;-67
2024/01/14 06:43:01;;;;;;;24.73;11.98;;;-0.80;99.90;;;;;;4926108;28;20042;-67
2024/01/14 06:45:27;;;;;;;27.27;12.63;;;-0.90;99.90;;;;;;4926757;28;20035;-67
2024/01/14 06:47:52;;;;;;;24.42;12.55;;;-0.90;99.90;;;;;;4926491;28;20521;-67
2024/01/14 06:50:18;;;;;;;21.55;11.27;;;-0.90;99.90;;;;;;4911794;28;20051;-65
2024/01/14 06:52:44;;;;;;;21.55;12.38;;;-0.90;99.90;;;;;;4927561;28;20447;-66
2024/01/14 06:55:12;;;;;;;26.17;13.05;;;-0.90;99.90;;;;;;4929475;28;20631;-65
2024/01/14 06:57:38;;;;;;;23.88;13.00;;;-0.90;99.90;;;;;;4926208;28;20287;-66
2024/01/14 07:00:04;;;;;;;25.13;12.95;;;-0.80;99.90;;;;;;4932079;28;20035;-65
2024/01/14 07:02:30;;;;;;;25.38;13.55;;;-0.80;99.90;;;;;;4929723;28;20046;-66
2024/01/14 07:04:56;;;;;;;26.63;12.93;;;-0.80;99.90;;;;;;4930887;28;20487;-66
2024/01/14 07:07:22;;;;;;;22.35;12.27;;;-0.90;99.90;;;;;;4930604;28;20070;-65
2024/01/14 07:09:48;;;;;;;25.25;12.77;;;-0.90;99.90;;;;;;4931447;28;20031;-66
2024/01/14 07:12:14;;;;;;;22.92;12.82;;;-0.90;99.90;;;;;;4933675;28;20027;-65
2024/01/14 07:14:39;;;;;;;25.38;13.57;;;-0.90;99.90;;;;;;4934078;28;20913;-65
2024/01/14 07:17:05;;;;;;;21.50;11.57;;;-0.90;99.90;;;;;;4916418;29;20031;-66
2024/01/14 07:19:31;;;;;;;25.27;13.65;;;-0.90;99.90;;;;;;4928658;28;20045;-67
2024/01/14 07:21:56;;;;;;;25.77;13.32;;;-0.90;99.90;;;;;;4935493;28;20034;-66
2024/01/14 07:24:22;;;;;;;23.30;12.60;;;-0.90;99.90;;;;;;4932085;28;20547;-66
2024/01/14 07:26:48;;;;;;;26.35;13.13;;;-0.80;99.90;;;;;;4930607;28;20054;-66
2024/01/14 07:29:14;;;;;;;27.15;13.98;;;-0.80;99.90;;;;;;4931325;28;23281;-67
2024/01/14 07:31:39;;;;;;;27.35;13.80;;;-0.80;99.90;;;;;;4932439;28;20065;-66
2024/01/14 07:34:06;;;;;;;27.02;13.95;;;-0.70;99.90;;;;;;4925840;28;21150;-66
2024/01/14 07:36:32;;;;;;;25.98;13.32;;;-0.70;99.90;;;;;;4930553;28;20031;-66
2024/01/14 07:38:59;;;;;;;23.73;12.55;;;-0.70;99.90;;;;;;4929976;28;20262;-66
2024/01/14 07:41:25;;;;;;;23.17;12.60;;;-0.70;99.90;;;;;;4925548;28;20310;-65
2024/01/14 07:43:51;;;;;;;24.23;12.65;;;-0.60;99.90;;;;;;4929180;28;20498;-66
2024/01/14 07:46:16;;;;;;;23.33;13.48;;;-0.60;99.90;;;;;;4929185;28;20870;-66
2024/01/14 07:48:42;;;;;;;25.85;13.23;;;-0.50;99.90;;;;;;4931074;28;20031;-66
2024/01/14 07:51:08;;;;;;;25.00;12.57;;;-0.40;99.90;;;;;;4929430;28;21041;-66
2024/01/14 07:53:34;;;;;;;26.17;12.85;;;-0.30;99.90;;;;;;4925854;28;20086;-67
2024/01/14 07:56:01;;;;;;;25.67;13.60;;;-0.30;99.90;;;;;;4928296;28;20059;-67
2024/01/14 07:58:26;;;;;;;24.35;13.40;;;-0.20;99.90;;;;;;4931438;28;20026;-67
2024/01/14 08:00:53;;;;;;;23.70;12.15;;;-0.20;99.90;;;;;;4924576;28;20035;-65
2024/01/14 08:03:19;;;;;;;21.75;11.95;;;-0.20;99.90;;;;;;4918830;28;20023;-67
2024/01/14 08:05:45;;;;;;;23.02;13.07;;;-0.20;99.90;;;;;;4888107;28;20338;-74
2024/01/14 08:08:10;;;;;;;24.30;13.20;;;-0.20;99.90;;;;;;4924205;28;20043;-74
2024/01/14 08:10:36;;;;;;;26.10;13.20;;;-0.20;99.90;;;;;;4931622;28;20050;-76
2024/01/14 08:13:02;;;;;;;25.67;12.38;;;-0.10;99.90;;;;;;4927651;28;20089;-72
2024/01/14 08:15:28;;;;;;;25.05;13.25;;;-0.10;99.90;;;;;;4925367;28;20526;-72
2024/01/14 08:17:54;;;;;;;24.25;12.40;;;0.00;99.90;;;;;;4925691;28;20070;-71
2024/01/14 08:20:19;;;;;;;25.30;13.15;;;0.00;99.90;;;;;;4929143;28;20110;-72
2024/01/14 08:22:45;;;;;;;26.40;13.15;;;0.00;99.90;;;;;;4930348;28;20518;-72
2024/01/14 08:25:10;;;;;;;24.42;13.23;;;0.10;99.90;;;;;;4941160;28;20058;-72
2024/01/14 08:27:38;;;;;;;20.65;11.52;;;0.20;99.90;;;;;;4929654;28;20046;-71
2024/01/14 08:30:05;;;;;;;24.55;11.75;;;0.30;99.90;;;;;;4924238;28;20456;-72
2024/01/14 08:32:31;;;;;;;27.15;12.23;;;0.30;99.90;;;;;;4925595;28;20046;-71
2024/01/14 08:34:56;;;;;;;20.65;11.63;;;0.40;99.90;;;;;;4925127;28;20027;-73
2024/01/14 08:37:23;;;;;;;28.25;12.77;;;0.50;99.90;;;;;;4923745;28;20035;-72
2024/01/14 08:39:50;;;;;;;21.95;11.90;;;0.60;99.90;;;;;;4930508;28;20115;-71
2024/01/14 08:42:19;;;;;;;22.00;11.73;;;0.70;99.90;;;;;;4926380;28;20121;-67
2024/01/14 08:44:44;;;;;;;22.48;11.85;;;0.70;99.90;;;;;;4926524;28;20023;-68
2024/01/14 08:47:10;;;;;;;20.75;12.05;;;0.80;99.90;;;;;;4928415;28;20376;-67
2024/01/14 08:49:36;;;;;;;21.48;11.32;;;0.80;99.90;;;;;;4926388;28;20102;-68
2024/01/14 08:52:01;;;;;;;18.85;10.73;;;0.90;99.90;;;;;;4926576;28;20514;-67
2024/01/14 08:54:31;;;;;;;22.52;12.10;;;0.80;99.90;;;;;;4924882;28;20122;-68
2024/01/14 08:56:56;;;;;;;23.00;11.05;;;0.90;99.90;;;;;;4929549;28;20031;-67
2024/01/14 08:59:22;;;;;;;17.60;10.13;;;1.00;99.90;;;;;;4923309;28;20031;-67
2024/01/14 09:01:48;;;;;;;17.95;10.70;;;1.00;99.90;;;;;;4921438;28;20087;-68
2024/01/14 09:04:13;;;;;;;21.10;12.02;;;1.10;99.90;;;;;;4925146;28;20110;-69
2024/01/14 09:06:40;;;;;;;20.42;10.90;;;1.20;99.90;;;;;;4913456;29;20059;-70
2024/01/14 09:09:06;;;;;;;22.27;13.80;;;1.30;99.90;;;;;;4927786;28;20749;-69
2024/01/14 09:11:32;;;;;;;17.35;10.70;;;1.40;99.90;;;;;;4926139;28;21607;-70
2024/01/14 09:13:58;;;;;;;22.17;11.90;;;1.50;99.90;;;;;;4923521;28;20118;-69
2024/01/14 09:16:24;;;;;;;18.15;9.82;;;1.50;99.90;;;;;;4907863;28;20027;-69
2024/01/14 09:18:49;;;;;;;21.75;10.98;;;1.50;99.90;;;;;;4921622;28;20038;-68
2024/01/14 09:21:15;;;;;;;17.67;10.50;;;1.40;99.90;;;;;;4926722;28;20390;-69
2024/01/14 09:23:41;;;;;;;16.20;11.00;;;1.30;99.90;;;;;;4920016;28;20396;-69
2024/01/14 09:26:06;;;;;;;18.73;10.85;;;1.30;99.90;;;;;;4922109;28;20113;-69
2024/01/14 09:28:33;;;;;;;16.60;9.38;;;1.40;99.90;;;;;;4922072;28;20019;-71
2024/01/14 09:30:58;;;;;;;19.23;12.88;;;1.30;99.90;;;;;;4925438;28;20776;-70
2024/01/14 09:33:24;;;;;;;16.30;9.48;;;1.20;99.90;;;;;;4925045;28;20144;-71
2024/01/14 09:35:49;;;;;;;15.75;9.75;;;1.30;99.90;;;;;;4924199;28;20032;-69
2024/01/14 09:38:15;;;;;;;13.77;8.45;;;1.30;99.90;;;;;;4924982;28;20038;-69
2024/01/14 09:40:41;;;;;;;18.45;11.15;;;1.30;99.90;;;;;;4924017;28;20496;-70
2024/01/14 09:43:10;;;;;;;16.13;9.60;;;1.30;99.90;;;;;;4929025;28;20031;-70
2024/01/14 09:45:38;;;;;;;15.95;8.73;;;1.40;99.90;;;;;;4928377;28;20035;-69
2024/01/14 09:48:04;;;;;;;14.10;8.75;;;1.50;99.90;;;;;;4929836;28;20032;-71
2024/01/14 09:50:31;;;;;;;15.27;8.48;;;1.40;99.90;;;;;;4931841;28;20066;-67
2024/01/14 09:52:58;;;;;;;26.83;14.55;;;1.40;99.90;;;;;;4926235;28;20039;-68
2024/01/14 09:55:24;;;;;;;40.25;23.42;;;1.50;99.90;;;;;;4927497;28;20035;-66
2024/01/14 09:57:52;;;;;;;13.63;8.23;;;1.60;99.90;;;;;;4929531;28;20402;-67
2024/01/14 10:00:22;;;;;;;13.05;7.65;;;1.70;99.90;;;;;;4932776;28;20027;-66
2024/01/14 10:02:48;;;;;;;11.13;6.93;;;1.80;99.90;;;;;;4918379;28;20050;-67
2024/01/14 10:05:15;;;;;;;11.55;7.00;;;2.00;99.90;;;;;;4930252;28;20035;-67
2024/01/14 10:07:43;;;;;;;9.70;5.70;;;2.10;99.90;;;;;;4930738;28;20051;-67
2024/01/14 10:10:09;;;;;;;11.88;6.10;;;2.10;99.90;;;;;;4936276;28;20035;-67
2024/01/14 10:12:36;;;;;;;9.90;5.65;;;2.00;99.90;;;;;;4930629;28;20103;-68
2024/01/14 10:15:02;;;;;;;9.98;5.03;;;2.10;99.90;;;;;;4928626;28;20192;-69
2024/01/14 10:17:28;;;;;;;9.75;5.32;;;2.10;99.90;;;;;;4926073;28;20034;-68
2024/01/14 10:19:54;;;;;;;9.25;5.05;;;2.10;99.90;;;;;;4933171;28;20038;-67
2024/01/14 10:22:21;;;;;;;7.72;5.63;;;2.10;99.90;;;;;;4931138;28;20039;-67
2024/01/14 10:24:55;;;;;;;9.10;5.10;;;2.00;99.90;;;;;;4927792;28;20058;-67
2024/01/14 10:27:22;;;;;;;7.35;4.72;;;2.10;99.90;;;;;;4927812;28;23797;-67
2024/01/14 10:29:49;;;;;;;8.48;5.15;;;2.20;99.90;;;;;;4929691;28;20047;-67
2024/01/14 10:32:15;;;;;;;6.47;4.03;;;2.30;99.90;;;;;;4931146;28;20122;-69
2024/01/14 10:34:41;;;;;;;7.43;4.53;;;2.40;99.90;;;;;;4934890;28;20038;-68
2024/01/14 10:37:07;;;;;;;5.90;3.78;;;2.40;99.90;;;;;;4927783;28;20034;-69
2024/01/14 10:39:34;;;;;;;6.40;3.72;;;2.40;99.90;;;;;;4928070;28;20432;-69
2024/01/14 10:42:01;;;;;;;7.80;4.18;;;2.50;99.90;;;;;;4935049;28;20039;-71
2024/01/14 10:44:28;;;;;;;6.88;4.00;;;2.50;99.90;;;;;;4934743;28;20031;-70
2024/01/14 10:46:56;;;;;;;6.70;3.85;;;2.50;99.90;;;;;;4931756;28;20517;-71
2024/01/14 10:49:25;;;;;;;6.85;3.92;;;2.60;99.90;;;;;;4937028;28;20031;-70
2024/01/14 10:52:03;;;;;;;9.77;4.68;;;2.70;99.90;;;;;;4937465;28;20047;-71
2024/01/14 10:54:39;;;;;;;15.82;6.50;;;2.70;99.90;;;;;;4938541;28;20031;-73
2024/01/14 10:57:20;;;;;;;7.85;5.28;;;2.60;99.90;;;;;;4928766;28;20031;-72
2024/01/14 10:59:48;;;;;;;9.02;5.15;;;2.60;99.90;;;;;;4938608;28;20051;-71
2024/01/14 11:02:17;;;;;;;13.23;6.88;;;2.60;99.90;;;;;;4937251;28;20534;-73
2024/01/14 11:04:47;;;;;;;11.27;6.82;;;2.60;99.90;;;;;;4938462;28;20038;-73
2024/01/14 11:07:13;;;;;;;12.80;7.45;;;2.50;99.90;;;;;;4923812;28;20102;-71
2024/01/14 11:09:41;;;;;;;12.27;7.30;;;2.40;99.90;;;;;;4939030;28;20111;-71
2024/01/14 11:12:14;;;;;;;11.07;5.93;;;2.40;99.90;;;;;;4939250;28;20045;-70
2024/01/14 11:15:06;;;;;;;12.38;8.25;;;2.40;99.90;;;;;;4933999;28;20103;-69
2024/01/14 11:18:06;;;;;;;14.25;7.95;;;2.40;99.90;;;;;;4930569;28;20055;-68
2024/01/14 11:20:34;;;;;;;10.68;7.28;;;2.30;99.90;;;;;;4924112;28;20146;-68
2024/01/14 11:23:00;;;;;;;11.05;6.40;;;2.30;99.90;;;;;;4925684;28;20059;-66
2024/01/14 11:25:33;;;;;;;14.00;5.97;;;2.30;99.90;;;;;;4932595;28;20351;-65
2024/01/14 11:28:04;;;;;;;6.50;4.28;;;2.40;99.90;;;;;;4935703;28;20026;-65
2024/01/14 11:30:55;;;;;;;6.65;4.00;;;2.40;99.90;;;;;;4949397;28;20142;-69
2024/01/14 11:33:42;;;;;;;6.53;3.90;;;2.50;99.90;;;;;;4933672;28;20058;-68
2024/01/14 11:36:09;;;;;;;8.48;4.93;;;2.60;99.90;;;;;;4932361;28;20042;-68
2024/01/14 11:38:54;;;;;;;9.75;4.47;;;2.60;99.90;;;;;;4926845;28;20035;-69
2024/01/14 11:41:30;;;;;;;9.10;5.28;;;2.50;99.90;;;;;;4935107;28;20023;-69
2024/01/14 11:44:03;;;;;;;13.00;6.00;;;2.50;99.90;;;;;;4938100;28;20474;-70
2024/01/14 11:46:42;;;;;;;9.18;6.15;;;2.50;99.90;;;;;;4933844;28;20039;-72
2024/01/14 11:49:15;;;;;;;10.40;5.90;;;2.50;99.90;;;;;;4935446;28;20050;-70
2024/01/14 11:51:53;;;;;;;10.35;6.15;;;2.40;99.90;;;;;;4937180;28;20047;-70
2024/01/14 11:54:22;;;;;;;12.27;6.38;;;2.30;99.90;;;;;;4933235;28;20035;-71
2024/01/14 11:56:48;;;;;;;13.43;6.85;;;2.20;99.90;;;;;;4933379;28;20035;-69
2024/01/14 11:59:13;;;;;;;13.07;7.10;;;2.20;99.90;;;;;;4948812;28;20035;-70
2024/01/14 12:01:39;;;;;;;10.27;6.63;;;2.30;99.90;;;;;;4935828;28;20042;-68
2024/01/14 12:04:09;;;;;;;8.65;5.40;;;2.30;99.90;;;;;;4931083;28;20054;-69
2024/01/14 12:06:43;;;;;;;9.45;6.13;;;2.30;99.90;;;;;;4935827;28;20039;-69
2024/01/14 12:09:10;;;;;;;12.65;7.03;;;2.30;99.90;;;;;;4932612;28;20047;-69
2024/01/14 12:11:36;;;;;;;11.00;6.78;;;2.20;99.90;;;;;;4933615;28;20049;-69
2024/01/14 12:14:03;;;;;;;9.52;6.10;;;2.30;99.90;;;;;;4921804;28;20027;-69
2024/01/14 12:16:33;;;;;;;12.55;7.50;;;2.30;99.90;;;;;;4929489;28;20051;-69
2024/01/14 12:18:59;;;;;;;11.43;7.35;;;2.30;99.90;;;;;;4932689;28;20515;-67
2024/01/14 12:21:26;;;;;;;9.48;6.43;;;2.20;99.90;;;;;;4927790;28;20369;-67
2024/01/14 12:23:53;;;;;;;10.43;6.47;;;2.20;99.90;;;;;;4930598;28;20031;-68
2024/01/14 12:26:19;;;;;;;11.15;6.55;;;2.30;99.90;;;;;;4926470;28;20783;-69
2024/01/14 12:28:46;;;;;;;11.30;6.88;;;2.40;99.90;;;;;;4933087;28;20035;-69
2024/01/14 12:31:24;;;;;;;10.45;6.43;;;2.50;99.90;;;;;;4934815;28;20185;-67
2024/01/14 12:33:49;;;;;;;10.30;5.97;;;2.60;99.90;;;;;;4929212;28;20027;-66
2024/01/14 12:36:15;;;;;;;10.55;6.80;;;2.50;99.90;;;;;;4931593;28;20031;-67
2024/01/14 12:38:42;;;;;;;10.20;6.68;;;2.50;99.90;;;;;;4932926;28;20043;-69